createdAt,value
2022-09-22T00:01:33.031Z,99.90
2022-09-22T00:04:03.718Z,99.90
2022-09-22T00:06:34.935Z,99.90
2022-09-22T00:09:03.883Z,99.90
2022-09-22T00:11:37.957Z,99.90
2022-09-22T00:14:15.206Z,99.90
2022-09-22T00:16:54.411Z,99.90
2022-09-22T00:19:25.970Z,99.90
2022-09-22T00:21:56.382Z,99.90
2022-09-22T00:24:25.004Z,99.90
2022-09-22T00:26:55.217Z,99.90
2022-09-22T00:29:23.895Z,99.90
2022-09-22T00:31:51.183Z,99.90
2022-09-22T00:34:26.383Z,99.90
2022-09-22T00:36:56.869Z,99.90
2022-09-22T00:39:24.095Z,99.90
2022-09-22T00:41:52.622Z,99.90
2022-09-22T00:44:43.102Z,99.90
2022-09-22T00:47:29.540Z,99.90
2022-09-22T00:50:09.058Z,99.90
2022-09-22T00:52:55.784Z,99.90
2022-09-22T00:55:36.151Z,99.90
2022-09-22T00:58:12.130Z,99.90
2022-09-22T01:00:39.897Z,99.90
2022-09-22T01:03:13.172Z,99.90
2022-09-22T01:05:42.684Z,99.90
2022-09-22T01:08:12.483Z,99.90
2022-09-22T01:10:40.100Z,99.90
2022-09-22T01:13:25.872Z,99.90
2022-09-22T01:16:32.689Z,99.90
2022-09-22T01:19:25.829Z,99.90
2022-09-22T01:22:32.616Z,99.90
2022-09-22T01:24:59.745Z,99.90
2022-09-22T01:27:38.908Z,99.90
2022-09-22T01:30:08.980Z,99.90
2022-09-22T01:32:43.053Z,99.90
2022-09-22T01:35:19.521Z,99.90
2022-09-22T01:38:01.803Z,99.90
2022-09-22T01:40:42.746Z,99.90
2022-09-22T01:43:16.422Z,99.90
2022-09-22T01:45:46.275Z,99.90
2022-09-22T01:48:30.842Z,99.90
2022-09-22T01:51:04.460Z,99.90
2022-09-22T01:53:40.554Z,99.90
2022-09-22T01:56:10.983Z,99.90
2022-09-22T01:58:45.980Z,99.90
2022-09-22T02:01:19.612Z,99.90
2022-09-22T02:03:54.430Z,99.90
2022-09-22T02:06:39.012Z,99.90
2022-09-22T02:09:10.590Z,99.90
2022-09-22T02:11:38.169Z,99.90
2022-09-22T02:14:06.897Z,99.90
2022-09-22T02:16:35.041Z,99.90
2022-09-22T02:19:13.425Z,99.90
2022-09-22T02:21:43.913Z,99.90
2022-09-22T02:24:33.922Z,99.90
2022-09-22T02:27:06.073Z,99.90
2022-09-22T02:29:40.888Z,99.90
2022-09-22T02:32:11.687Z,99.90
2022-09-22T02:34:39.098Z,99.90
2022-09-22T02:37:38.951Z,99.90
2022-09-22T02:40:15.853Z,99.90
2022-09-22T02:42:52.216Z,99.90
2022-09-22T02:45:26.553Z,99.90
2022-09-22T02:48:18.623Z,99.90
2022-09-22T02:50:46.446Z,99.90
2022-09-22T02:53:17.204Z,99.90
2022-09-22T02:55:45.691Z,99.90
2022-09-22T02:58:19.411Z,99.90
2022-09-22T03:00:51.363Z,99.90
2022-09-22T03:03:18.540Z,99.90
2022-09-22T03:05:45.826Z,99.90
2022-09-22T03:08:15.449Z,99.90
2022-09-22T03:10:42.888Z,99.90
2022-09-22T03:13:17.543Z,99.90
2022-09-22T03:15:46.437Z,99.90
2022-09-22T03:18:14.163Z,99.90
2022-09-22T03:20:42.003Z,99.90
2022-09-22T03:23:09.716Z,99.90
2022-09-22T03:25:39.580Z,99.90
2022-09-22T03:28:07.101Z,99.90
2022-09-22T03:30:35.804Z,99.90
2022-09-22T03:33:03.262Z,99.90
2022-09-22T03:35:32.964Z,99.90
2022-09-22T03:38:02.749Z,99.90
2022-09-22T03:40:32.433Z,99.90
2022-09-22T03:42:59.903Z,99.90
2022-09-22T03:45:29.638Z,99.90
2022-09-22T03:47:59.024Z,99.90
2022-09-22T03:50:29.019Z,99.90
2022-09-22T03:52:57.593Z,99.90
2022-09-22T03:55:25.379Z,99.90
2022-09-22T03:57:52.703Z,99.90
2022-09-22T04:00:22.100Z,99.90
2022-09-22T04:02:49.344Z,99.90
2022-09-22T04:05:17.055Z,99.90
2022-09-22T04:07:45.054Z,99.90
2022-09-22T04:10:14.794Z,99.90
2022-09-22T04:12:41.949Z,99.90
2022-09-22T04:15:09.695Z,99.90
2022-09-22T04:17:39.936Z,99.90
2022-09-22T04:20:08.229Z,99.90
2022-09-22T04:22:35.883Z,99.90
2022-09-22T04:25:03.428Z,99.90
2022-09-22T04:27:32.867Z,99.90
2022-09-22T04:30:00.939Z,99.90
2022-09-22T04:32:30.263Z,99.90
2022-09-22T04:34:59.651Z,99.90
2022-09-22T04:37:27.142Z,99.90
2022-09-22T04:39:55.531Z,99.90
2022-09-22T04:42:25.227Z,99.90
2022-09-22T04:44:57.209Z,99.90
2022-09-22T04:47:24.439Z,99.90
2022-09-22T04:49:51.761Z,99.90
2022-09-22T04:52:18.980Z,99.90
2022-09-22T04:54:48.761Z,99.90
2022-09-22T04:57:20.226Z,99.90
2022-09-22T04:59:50.708Z,99.90
2022-09-22T05:02:18.379Z,99.90
2022-09-22T05:04:46.110Z,99.90
2022-09-22T05:07:13.819Z,99.90
2022-09-22T05:09:43.528Z,99.90
2022-09-22T05:12:10.802Z,99.90
2022-09-22T05:14:38.001Z,99.90
2022-09-22T05:17:06.000Z,99.90
2022-09-22T05:19:33.674Z,99.90
2022-09-22T05:22:01.482Z,99.90
2022-09-22T05:24:28.714Z,99.90
2022-09-22T05:26:55.908Z,99.90
2022-09-22T05:29:28.009Z,99.90
2022-09-22T05:31:55.487Z,99.90
2022-09-22T05:34:23.268Z,99.90
2022-09-22T05:36:50.937Z,99.90
2022-09-22T05:39:22.593Z,99.90
2022-09-22T05:41:50.461Z,99.90
2022-09-22T05:44:17.698Z,99.90
2022-09-22T05:46:46.733Z,99.90
2022-09-22T05:49:14.341Z,99.90
2022-09-22T05:51:42.420Z,99.90
2022-09-22T05:54:13.978Z,99.90
2022-09-22T05:56:41.594Z,99.90
2022-09-22T05:59:14.034Z,99.90
2022-09-22T06:01:41.826Z,99.90
2022-09-22T06:04:09.104Z,99.90
2022-09-22T06:06:36.303Z,99.90
2022-09-22T06:09:04.090Z,99.90
2022-09-22T06:11:31.339Z,99.90
2022-09-22T06:14:00.967Z,99.90
2022-09-22T06:16:29.956Z,99.90
2022-09-22T06:18:57.232Z,99.90
2022-09-22T06:21:25.921Z,99.90
2022-09-22T06:23:57.544Z,99.90
2022-09-22T06:26:24.801Z,99.90
2022-09-22T06:28:57.248Z,99.90
2022-09-22T06:31:28.927Z,99.90
2022-09-22T06:33:56.763Z,99.90
2022-09-22T06:36:31.337Z,99.90
2022-09-22T06:38:59.156Z,99.90
2022-09-22T06:41:31.696Z,99.90
2022-09-22T06:43:59.252Z,99.90
2022-09-22T06:46:31.396Z,99.90
2022-09-22T06:48:58.807Z,99.90
2022-09-22T06:51:32.952Z,99.90
2022-09-22T06:54:05.031Z,99.90
2022-09-22T06:56:37.970Z,99.90
2022-09-22T06:59:10.932Z,99.90
2022-09-22T07:01:40.615Z,99.90
2022-09-22T07:04:08.859Z,99.90
2022-09-22T07:06:37.398Z,99.90
2022-09-22T07:09:05.942Z,99.90
2022-09-22T07:11:36.348Z,99.90
2022-09-22T07:14:12.716Z,99.90
2022-09-22T07:16:40.902Z,99.90
2022-09-22T07:19:08.640Z,99.90
2022-09-22T07:21:37.894Z,99.90
2022-09-22T07:24:08.305Z,99.90
2022-09-22T07:26:39.624Z,99.90
2022-09-22T07:29:13.484Z,99.90
2022-09-22T07:31:41.822Z,99.40
2022-09-22T07:34:09.855Z,99.80
2022-09-22T07:36:37.477Z,99.40
2022-09-22T07:39:11.228Z,99.60
2022-09-22T07:41:43.252Z,99.20
2022-09-22T07:44:31.401Z,98.40
2022-09-22T07:47:01.855Z,98.60
2022-09-22T07:49:30.037Z,99.40
2022-09-22T07:51:58.065Z,99.90
2022-09-22T07:54:26.336Z,99.90
2022-09-22T07:56:58.550Z,99.90
2022-09-22T07:59:27.383Z,99.90
2022-09-22T08:01:57.340Z,99.90
2022-09-22T08:04:26.328Z,98.60
2022-09-22T08:06:58.322Z,95.60
2022-09-22T08:09:25.951Z,94.50
2022-09-22T08:11:53.849Z,92.60
2022-09-22T08:14:23.032Z,91.00
2022-09-22T08:16:54.153Z,89.20
2022-09-22T08:19:26.617Z,85.20
2022-09-22T08:21:54.358Z,84.30
2022-09-22T08:24:24.578Z,80.60
2022-09-22T08:26:55.829Z,82.00
2022-09-22T08:29:25.806Z,79.20
2022-09-22T08:31:54.154Z,77.50
2022-09-22T08:34:24.350Z,78.80
2022-09-22T08:36:52.094Z,74.20
2022-09-22T08:39:22.208Z,76.50
2022-09-22T08:42:08.235Z,75.00
2022-09-22T08:44:41.488Z,73.50
2022-09-22T08:47:17.124Z,72.40
2022-09-22T08:50:07.385Z,71.60
2022-09-22T08:52:50.911Z,68.60
2022-09-22T08:55:25.996Z,67.80
2022-09-22T08:58:39.621Z,67.30
2022-09-22T09:01:24.402Z,68.20
2022-09-22T09:03:59.742Z,67.70
2022-09-22T09:06:59.319Z,65.90
2022-09-22T09:09:50.230Z,67.50
2022-09-22T09:12:48.384Z,65.40
2022-09-22T09:15:26.809Z,66.20
2022-09-22T09:18:01.198Z,63.90
2022-09-22T09:20:43.631Z,64.30
2022-09-22T09:23:18.132Z,62.70
2022-09-22T09:25:52.357Z,62.50
2022-09-22T09:28:27.854Z,64.10
2022-09-22T09:31:07.655Z,63.20
2022-09-22T09:33:55.417Z,60.70
2022-09-22T09:36:29.445Z,62.50
2022-09-22T09:38:58.856Z,61.20
2022-09-22T09:41:32.493Z,62.10
2022-09-22T09:44:04.348Z,62.50
2022-09-22T09:46:41.544Z,58.80
2022-09-22T09:49:14.862Z,61.30
2022-09-22T09:51:48.426Z,61.10
2022-09-22T09:54:20.454Z,61.20
2022-09-22T09:57:10.680Z,63.30
2022-09-22T10:00:25.026Z,63.00
2022-09-22T10:03:03.291Z,63.10
2022-09-22T10:05:36.231Z,61.90
2022-09-22T10:08:20.264Z,61.70
2022-09-22T10:10:54.886Z,61.60
2022-09-22T10:13:33.481Z,61.30
2022-09-22T10:16:09.795Z,61.40
2022-09-22T10:18:41.859Z,59.70
2022-09-22T10:21:23.697Z,59.00
2022-09-22T10:23:55.176Z,59.10
2022-09-22T10:26:27.078Z,59.70
2022-09-22T10:29:27.789Z,60.70
2022-09-22T10:32:14.866Z,59.90
2022-09-22T10:34:54.767Z,61.60
2022-09-22T10:37:31.164Z,59.50
2022-09-22T10:40:01.812Z,59.20
2022-09-22T10:42:36.451Z,58.20
2022-09-22T10:45:10.320Z,57.30
2022-09-22T10:47:57.572Z,58.80
2022-09-22T10:50:41.362Z,57.50
2022-09-22T10:53:51.300Z,58.60
2022-09-22T10:56:38.945Z,57.70
2022-09-22T10:59:27.433Z,57.90
2022-09-22T11:02:03.902Z,57.10
2022-09-22T11:04:49.848Z,57.60
2022-09-22T11:07:50.815Z,59.90
2022-09-22T11:10:56.326Z,60.50
2022-09-22T11:13:59.962Z,59.10
2022-09-22T11:16:39.979Z,58.40
2022-09-22T11:19:26.836Z,57.30
2022-09-22T11:22:19.012Z,56.70
2022-09-22T11:25:24.342Z,55.50
2022-09-22T11:27:56.688Z,57.40
2022-09-22T11:30:24.140Z,57.70
2022-09-22T11:33:11.267Z,59.40
2022-09-22T11:36:00.090Z,59.60
2022-09-22T11:38:34.949Z,59.10
2022-09-22T11:41:15.787Z,60.70
2022-09-22T11:43:52.652Z,58.50
2022-09-22T11:46:47.640Z,58.90
2022-09-22T11:49:39.936Z,57.90
2022-09-22T11:52:47.074Z,56.30
2022-09-22T11:55:26.112Z,56.20
2022-09-22T11:58:01.706Z,55.60
2022-09-22T12:00:42.315Z,57.80
2022-09-22T12:03:21.322Z,56.80
2022-09-22T12:06:03.770Z,54.10
2022-09-22T12:08:38.063Z,55.50
2022-09-22T12:11:11.498Z,56.70
2022-09-22T12:13:46.223Z,54.30
2022-09-22T12:16:31.302Z,53.30
2022-09-22T12:19:02.350Z,55.40
2022-09-22T12:21:54.631Z,55.40
2022-09-22T12:24:22.091Z,54.70
2022-09-22T12:26:53.631Z,55.20
2022-09-22T12:29:30.619Z,55.00
2022-09-22T12:32:02.111Z,54.20
2022-09-22T12:34:37.646Z,56.10
2022-09-22T12:37:29.666Z,52.60
2022-09-22T12:40:10.102Z,52.80
2022-09-22T12:42:41.202Z,57.40
2022-09-22T12:45:29.271Z,53.60
2022-09-22T12:47:57.949Z,54.90
2022-09-22T12:50:31.122Z,56.20
2022-09-22T12:53:28.282Z,55.20
2022-09-22T12:55:57.703Z,54.80
2022-09-22T12:58:30.900Z,53.40
2022-09-22T13:01:33.527Z,54.80
2022-09-22T13:04:16.776Z,55.50
2022-09-22T13:06:43.920Z,57.00
2022-09-22T13:09:21.347Z,56.90
2022-09-22T13:12:14.413Z,57.60
2022-09-22T13:15:04.489Z,54.10
2022-09-22T13:17:44.047Z,54.40
2022-09-22T13:20:19.099Z,56.40
2022-09-22T13:22:51.940Z,55.90
2022-09-22T13:25:25.648Z,56.70
2022-09-22T13:28:12.107Z,54.10
2022-09-22T13:30:42.023Z,53.70
2022-09-22T13:33:26.296Z,55.50
2022-09-22T13:36:14.535Z,54.90
2022-09-22T13:38:51.830Z,56.20
2022-09-22T13:41:21.069Z,55.00
2022-09-22T13:43:51.943Z,55.20
2022-09-22T13:46:47.006Z,57.20
2022-09-22T13:49:28.699Z,56.70
2022-09-22T13:52:02.020Z,56.20
2022-09-22T13:54:30.986Z,55.90
2022-09-22T13:57:01.362Z,59.70
2022-09-22T13:59:38.466Z,60.10
2022-09-22T14:02:12.422Z,58.10
2022-09-22T14:04:52.868Z,59.70
2022-09-22T14:07:22.158Z,58.60
2022-09-22T14:09:50.657Z,56.90
2022-09-22T14:12:18.586Z,57.40
2022-09-22T14:14:45.854Z,57.50
2022-09-22T14:17:20.938Z,56.60
2022-09-22T14:20:02.955Z,57.70
2022-09-22T14:22:40.300Z,58.10
2022-09-22T14:25:19.360Z,57.40
2022-09-22T14:27:59.166Z,57.20
2022-09-22T14:30:31.233Z,57.30
2022-09-22T14:33:02.100Z,56.40
2022-09-22T14:35:32.643Z,58.60
2022-09-22T14:38:17.188Z,62.50
2022-09-22T14:40:55.908Z,59.70
2022-09-22T14:43:27.533Z,59.60
2022-09-22T14:46:08.730Z,60.00
2022-09-22T14:48:37.296Z,62.40
2022-09-22T14:51:08.832Z,64.20
2022-09-22T14:53:41.902Z,61.50
2022-09-22T14:56:16.966Z,62.20
2022-09-22T14:58:51.643Z,63.00
2022-09-22T15:01:52.487Z,65.50
2022-09-22T15:04:32.314Z,63.30
2022-09-22T15:06:59.970Z,64.10
2022-09-22T15:09:35.672Z,67.10
2022-09-22T15:12:05.412Z,70.30
2022-09-22T15:14:42.062Z,66.00
2022-09-22T15:17:53.043Z,64.00
2022-09-22T15:20:22.733Z,63.30
2022-09-22T15:22:50.135Z,62.20
2022-09-22T15:25:19.642Z,59.70
2022-09-22T15:27:47.313Z,62.00
2022-09-22T15:30:18.491Z,67.00
2022-09-22T15:32:47.726Z,63.30
2022-09-22T15:35:20.366Z,61.70
2022-09-22T15:37:50.131Z,65.00
2022-09-22T15:40:22.116Z,63.30
2022-09-22T15:43:11.804Z,63.60
2022-09-22T15:45:37.814Z,63.80
2022-09-22T15:48:05.826Z,66.60
2022-09-22T15:50:35.743Z,64.40
2022-09-22T15:53:02.994Z,63.90
2022-09-22T15:55:30.804Z,66.10
2022-09-22T15:58:07.276Z,65.40
2022-09-22T16:00:38.126Z,62.40
2022-09-22T16:03:33.536Z,65.40
2022-09-22T16:06:08.410Z,67.50
2022-09-22T16:08:42.230Z,67.70
2022-09-22T16:11:15.314Z,65.80
2022-09-22T16:13:45.476Z,70.40
2022-09-22T16:16:12.779Z,71.50
2022-09-22T16:18:41.803Z,73.20
2022-09-22T16:21:20.238Z,73.10
2022-09-22T16:23:47.980Z,73.70
2022-09-22T16:26:15.859Z,73.80
2022-09-22T16:28:43.579Z,74.00
2022-09-22T16:31:11.390Z,74.90
2022-09-22T16:33:38.678Z,76.70
2022-09-22T16:36:06.022Z,77.30
2022-09-22T16:38:36.182Z,77.80
2022-09-22T16:41:18.468Z,79.60
2022-09-22T16:43:48.437Z,80.70
2022-09-22T16:46:28.434Z,81.00
2022-09-22T16:49:07.502Z,81.70
2022-09-22T16:51:38.171Z,83.10
2022-09-22T16:54:07.781Z,82.20
2022-09-22T16:56:39.677Z,82.50
2022-09-22T16:59:07.793Z,83.00
2022-09-22T17:01:38.760Z,83.70
2022-09-22T17:04:10.014Z,84.50
2022-09-22T17:06:39.168Z,85.20
2022-09-22T17:09:08.361Z,84.90
2022-09-22T17:11:39.188Z,85.70
2022-09-22T17:14:12.513Z,85.80
2022-09-22T17:16:44.676Z,85.60
2022-09-22T17:19:19.776Z,85.80
2022-09-22T17:21:48.619Z,86.50
2022-09-22T17:24:19.310Z,87.30
2022-09-22T17:26:49.423Z,87.80
2022-09-22T17:29:25.515Z,88.10
2022-09-22T17:31:59.376Z,88.60
2022-09-22T17:34:30.800Z,88.50
2022-09-22T17:36:59.020Z,88.80
2022-09-22T17:39:28.559Z,89.50
2022-09-22T17:41:56.297Z,90.20
2022-09-22T17:44:28.614Z,90.00
2022-09-22T17:47:14.766Z,90.50
2022-09-22T17:50:03.345Z,90.60
2022-09-22T17:52:33.316Z,90.90
2022-09-22T17:55:09.661Z,91.10
2022-09-22T17:57:45.403Z,91.10
2022-09-22T18:00:14.927Z,91.30
2022-09-22T18:02:42.373Z,92.10
2022-09-22T18:05:15.431Z,92.30
2022-09-22T18:07:44.909Z,92.60
2022-09-22T18:10:15.028Z,92.50
2022-09-22T18:12:45.250Z,92.80
2022-09-22T18:15:13.457Z,92.60
2022-09-22T18:17:44.580Z,92.70
2022-09-22T18:20:14.848Z,93.20
2022-09-22T18:22:47.540Z,93.50
2022-09-22T18:25:19.301Z,93.90
2022-09-22T18:27:50.017Z,93.90
2022-09-22T18:30:18.440Z,93.80
2022-09-22T18:32:47.637Z,94.20
2022-09-22T18:35:17.616Z,94.30
2022-09-22T18:37:47.440Z,94.40
2022-09-22T18:40:16.795Z,94.60
2022-09-22T18:42:44.629Z,94.70
2022-09-22T18:45:12.584Z,94.90
2022-09-22T18:47:43.455Z,95.20
2022-09-22T18:50:12.157Z,95.40
2022-09-22T18:52:43.200Z,95.50
2022-09-22T18:55:11.633Z,95.70
2022-09-22T18:57:39.331Z,96.10
2022-09-22T19:00:07.824Z,96.40
2022-09-22T19:02:35.218Z,96.60
2022-09-22T19:05:02.631Z,97.00
2022-09-22T19:07:42.512Z,97.20
2022-09-22T19:10:20.866Z,97.30
2022-09-22T19:12:49.357Z,97.40
2022-09-22T19:15:18.948Z,97.70
2022-09-22T19:17:49.215Z,97.80
2022-09-22T19:20:23.748Z,97.90
2022-09-22T19:22:53.965Z,98.20
2022-09-22T19:25:22.928Z,98.50
2022-09-22T19:27:55.844Z,98.70
2022-09-22T19:30:25.694Z,98.80
2022-09-22T19:32:55.302Z,98.80
2022-09-22T19:35:23.054Z,99.10
2022-09-22T19:37:53.830Z,99.10
2022-09-22T19:40:24.606Z,99.40
2022-09-22T19:42:53.892Z,99.60
2022-09-22T19:45:21.869Z,99.90
2022-09-22T19:47:49.109Z,99.90
2022-09-22T19:50:16.903Z,99.90
2022-09-22T19:52:44.330Z,99.90
2022-09-22T19:55:12.381Z,99.90
2022-09-22T19:57:41.713Z,99.90
2022-09-22T20:00:25.764Z,99.90
2022-09-22T20:03:00.880Z,99.90
2022-09-22T20:05:36.820Z,99.90
2022-09-22T20:08:05.530Z,99.90
2022-09-22T20:10:37.004Z,99.90
2022-09-22T20:13:24.230Z,99.90
2022-09-22T20:15:53.992Z,99.90
2022-09-22T20:18:21.641Z,99.90
2022-09-22T20:20:56.646Z,99.90
2022-09-22T20:23:24.631Z,99.90
2022-09-22T20:25:52.141Z,99.90
2022-09-22T20:28:19.855Z,99.90
2022-09-22T20:30:47.105Z,99.90
2022-09-22T20:33:20.475Z,99.90
2022-09-22T20:35:55.552Z,99.90
2022-09-22T20:38:22.904Z,99.90
2022-09-22T20:40:50.547Z,99.90
2022-09-22T20:43:18.404Z,99.90
2022-09-22T20:45:47.862Z,99.90
2022-09-22T20:48:19.220Z,99.90
2022-09-22T20:50:59.051Z,99.90
2022-09-22T20:53:27.804Z,99.90
2022-09-22T20:56:02.110Z,99.90
2022-09-22T20:58:33.865Z,99.90
2022-09-22T21:01:03.049Z,99.90
2022-09-22T21:03:33.195Z,99.90
2022-09-22T21:06:02.391Z,99.90
2022-09-22T21:08:49.256Z,99.90
2022-09-22T21:11:22.461Z,99.90
2022-09-22T21:13:56.553Z,99.90
2022-09-22T21:16:24.294Z,99.90
2022-09-22T21:18:51.878Z,99.90
2022-09-22T21:21:21.101Z,99.90
2022-09-22T21:23:51.280Z,99.90
2022-09-22T21:26:20.735Z,99.90
2022-09-22T21:28:51.226Z,99.90
2022-09-22T21:31:19.784Z,99.90
2022-09-22T21:33:47.636Z,99.90
2022-09-22T21:36:20.231Z,99.90
2022-09-22T21:38:55.781Z,99.90
2022-09-22T21:41:25.448Z,99.90
2022-09-22T21:43:55.319Z,99.90
2022-09-22T21:46:24.976Z,99.90
2022-09-22T21:48:59.207Z,99.90
2022-09-22T21:51:30.598Z,99.90
2022-09-22T21:53:57.848Z,99.90
2022-09-22T21:56:30.020Z,99.90
2022-09-22T21:59:00.450Z,99.90
2022-09-22T22:01:36.381Z,99.90
2022-09-22T22:04:08.200Z,99.90
2022-09-22T22:06:44.723Z,99.90
2022-09-22T22:09:20.504Z,99.90
2022-09-22T22:11:56.722Z,99.90
2022-09-22T22:14:26.683Z,99.90
2022-09-22T22:16:55.499Z,99.90
2022-09-22T22:19:25.807Z,99.90
2022-09-22T22:21:54.388Z,99.90
2022-09-22T22:24:42.487Z,99.90
2022-09-22T22:27:11.357Z,99.90
2022-09-22T22:29:38.942Z,99.90
2022-09-22T22:32:10.455Z,99.90
2022-09-22T22:34:38.243Z,99.90
2022-09-22T22:37:09.409Z,99.90
2022-09-22T22:39:39.198Z,99.90
2022-09-22T22:42:11.615Z,99.90
2022-09-22T22:44:38.825Z,99.90
2022-09-22T22:47:08.962Z,99.90
2022-09-22T22:49:36.179Z,99.90
2022-09-22T22:52:03.537Z,99.90
2022-09-22T22:54:30.744Z,99.90
2022-09-22T22:57:00.550Z,99.90
2022-09-22T22:59:30.109Z,99.90
2022-09-22T23:01:59.429Z,99.90
2022-09-22T23:04:27.314Z,99.90
2022-09-22T23:06:56.987Z,99.90
2022-09-22T23:09:24.656Z,99.90
2022-09-22T23:11:53.977Z,99.90
2022-09-22T23:14:21.690Z,99.90
2022-09-22T23:16:49.510Z,99.90
2022-09-22T23:19:18.529Z,99.90
2022-09-22T23:21:48.493Z,99.90
2022-09-22T23:24:19.188Z,99.90
2022-09-22T23:26:47.487Z,99.90
2022-09-22T23:29:17.120Z,99.90
2022-09-22T23:31:44.774Z,99.90
2022-09-22T23:34:11.929Z,99.90
2022-09-22T23:36:39.816Z,99.90
2022-09-22T23:39:07.202Z,99.90
2022-09-22T23:41:36.341Z,99.90
2022-09-22T23:44:07.050Z,99.90
2022-09-22T23:46:34.901Z,99.90
2022-09-22T23:49:02.442Z,99.90
2022-09-22T23:51:30.109Z,99.90
2022-09-22T23:53:57.682Z,99.90
2022-09-22T23:56:25.382Z,99.90
2022-09-22T23:58:52.928Z,99.90
